sensor_id;sensor_type;location;lat;lon;timestamp;P1;durP1;ratioP1;P2;durP2;ratioP2
57389;SDS011;43217;52.694;6.214;2022-09-09T00:02:22;8.43;;;7.72;;
57389;SDS011;43217;52.694;6.214;2022-09-09T00:04:59;9.63;;;8.60;;
57389;SDS011;43217;52.694;6.214;2022-09-09T00:07:46;9.52;;;8.57;;
57389;SDS011;43217;52.694;6.214;2022-09-09T00:16:04;10.45;;;8.65;;
57389;SDS011;43217;52.694;6.214;2022-09-09T00:18:57;10.57;;;9.43;;
57389;SDS011;43217;52.694;6.214;2022-09-09T00:21:34;10.30;;;9.30;;
57389;SDS011;43217;52.694;6.214;2022-09-09T00:24:23;10.15;;;9.23;;
57389;SDS011;43217;52.694;6.214;2022-09-09T00:27:51;10.13;;;9.10;;
57389;SDS011;43217;52.694;6.214;2022-09-09T00:30:18;11.10;;;9.23;;
57389;SDS011;43217;52.694;6.214;2022-09-09T00:32:48;9.23;;;8.25;;
57389;SDS011;43217;52.694;6.214;2022-09-09T00:37:52;10.75;;;9.70;;
57389;SDS011;43217;52.694;6.214;2022-09-09T00:40:34;9.98;;;9.00;;
57389;SDS011;43217;52.694;6.214;2022-09-09T00:43:19;10.70;;;9.35;;
57389;SDS011;43217;52.694;6.214;2022-09-09T00:57:13;10.80;;;9.82;;
57389;SDS011;43217;52.694;6.214;2022-09-09T01:00:36;10.40;;;9.40;;
57389;SDS011;43217;52.694;6.214;2022-09-09T01:05:49;12.55;;;11.05;;
57389;SDS011;43217;52.694;6.214;2022-09-09T01:11:00;11.50;;;10.18;;
57389;SDS011;43217;52.694;6.214;2022-09-09T01:13:36;11.68;;;10.57;;
57389;SDS011;43217;52.694;6.214;2022-09-09T01:16:06;12.75;;;11.45;;
57389;SDS011;43217;52.694;6.214;2022-09-09T01:18:40;11.65;;;10.07;;
57389;SDS011;43217;52.694;6.214;2022-09-09T01:21:16;10.77;;;9.05;;
57389;SDS011;43217;52.694;6.214;2022-09-09T01:26:37;12.40;;;11.23;;
57389;SDS011;43217;52.694;6.214;2022-09-09T01:29:11;12.55;;;11.18;;
57389;SDS011;43217;52.694;6.214;2022-09-09T01:31:41;14.18;;;12.18;;
57389;SDS011;43217;52.694;6.214;2022-09-09T01:34:29;13.25;;;11.50;;
57389;SDS011;43217;52.694;6.214;2022-09-09T01:37:05;13.77;;;12.10;;
57389;SDS011;43217;52.694;6.214;2022-09-09T01:39:33;18.45;;;12.10;;
57389;SDS011;43217;52.694;6.214;2022-09-09T01:42:01;15.57;;;12.77;;
57389;SDS011;43217;52.694;6.214;2022-09-09T01:44:29;16.05;;;12.73;;
57389;SDS011;43217;52.694;6.214;2022-09-09T01:46:55;13.13;;;11.02;;
57389;SDS011;43217;52.694;6.214;2022-09-09T01:49:21;16.55;;;12.25;;
57389;SDS011;43217;52.694;6.214;2022-09-09T01:51:49;14.18;;;10.73;;
57389;SDS011;43217;52.694;6.214;2022-09-09T01:54:17;12.32;;;10.35;;
57389;SDS011;43217;52.694;6.214;2022-09-09T01:59:37;14.82;;;12.20;;
57389;SDS011;43217;52.694;6.214;2022-09-09T02:05:24;15.80;;;11.40;;
57389;SDS011;43217;52.694;6.214;2022-09-09T02:07:56;15.05;;;11.40;;
57389;SDS011;43217;52.694;6.214;2022-09-09T02:13:25;13.45;;;11.00;;
57389;SDS011;43217;52.694;6.214;2022-09-09T02:18:59;13.10;;;10.63;;
57389;SDS011;43217;52.694;6.214;2022-09-09T02:21:36;10.65;;;9.60;;
57389;SDS011;43217;52.694;6.214;2022-09-09T02:24:03;12.63;;;11.00;;
57389;SDS011;43217;52.694;6.214;2022-09-09T02:26:33;13.30;;;11.05;;
57389;SDS011;43217;52.694;6.214;2022-09-09T02:29:01;12.30;;;10.75;;
57389;SDS011;43217;52.694;6.214;2022-09-09T02:31:30;12.13;;;9.98;;
57389;SDS011;43217;52.694;6.214;2022-09-09T02:34:03;10.90;;;9.80;;
57389;SDS011;43217;52.694;6.214;2022-09-09T02:36:32;17.50;;;11.10;;
57389;SDS011;43217;52.694;6.214;2022-09-09T02:38:59;14.65;;;11.15;;
57389;SDS011;43217;52.694;6.214;2022-09-09T02:41:32;11.73;;;10.43;;
57389;SDS011;43217;52.694;6.214;2022-09-09T02:44:00;13.07;;;10.70;;
57389;SDS011;43217;52.694;6.214;2022-09-09T02:49:09;14.68;;;10.48;;
57389;SDS011;43217;52.694;6.214;2022-09-09T02:51:46;11.25;;;10.02;;
57389;SDS011;43217;52.694;6.214;2022-09-09T02:54:41;10.98;;;9.88;;
57389;SDS011;43217;52.694;6.214;2022-09-09T02:57:27;11.60;;;10.15;;
57389;SDS011;43217;52.694;6.214;2022-09-09T02:59:56;11.38;;;9.90;;
57389;SDS011;43217;52.694;6.214;2022-09-09T03:02:23;10.20;;;9.07;;
57389;SDS011;43217;52.694;6.214;2022-09-09T03:04:58;12.07;;;9.63;;
57389;SDS011;43217;52.694;6.214;2022-09-09T03:07:23;9.20;;;8.38;;
57389;SDS011;43217;52.694;6.214;2022-09-09T03:09:54;12.75;;;9.60;;
57389;SDS011;43217;52.694;6.214;2022-09-09T03:12:20;10.93;;;9.20;;
57389;SDS011;43217;52.694;6.214;2022-09-09T03:17:30;9.40;;;8.50;;
57389;SDS011;43217;52.694;6.214;2022-09-09T03:23:13;11.30;;;8.90;;
57389;SDS011;43217;52.694;6.214;2022-09-09T03:25:50;9.13;;;8.15;;
57389;SDS011;43217;52.694;6.214;2022-09-09T03:28:17;11.85;;;8.75;;
57389;SDS011;43217;52.694;6.214;2022-09-09T03:30:43;10.02;;;8.65;;
57389;SDS011;43217;52.694;6.214;2022-09-09T03:33:09;9.85;;;8.90;;
57389;SDS011;43217;52.694;6.214;2022-09-09T03:35:34;9.20;;;8.23;;
57389;SDS011;43217;52.694;6.214;2022-09-09T03:38:01;8.90;;;8.10;;
57389;SDS011;43217;52.694;6.214;2022-09-09T03:40:26;8.30;;;7.50;;
57389;SDS011;43217;52.694;6.214;2022-09-09T03:42:52;8.77;;;7.82;;
57389;SDS011;43217;52.694;6.214;2022-09-09T03:45:18;9.60;;;7.90;;
57389;SDS011;43217;52.694;6.214;2022-09-09T03:47:43;9.48;;;8.48;;
57389;SDS011;43217;52.694;6.214;2022-09-09T03:50:09;9.90;;;8.77;;
57389;SDS011;43217;52.694;6.214;2022-09-09T03:52:39;9.20;;;8.33;;
57389;SDS011;43217;52.694;6.214;2022-09-09T03:55:06;11.27;;;8.80;;
57389;SDS011;43217;52.694;6.214;2022-09-09T03:57:32;10.30;;;8.73;;
57389;SDS011;43217;52.694;6.214;2022-09-09T04:00:00;9.88;;;8.48;;
57389;SDS011;43217;52.694;6.214;2022-09-09T04:02:30;9.23;;;8.10;;
57389;SDS011;43217;52.694;6.214;2022-09-09T04:04:56;10.95;;;8.35;;
57389;SDS011;43217;52.694;6.214;2022-09-09T04:07:21;9.57;;;8.68;;
57389;SDS011;43217;52.694;6.214;2022-09-09T04:09:47;10.50;;;8.57;;
57389;SDS011;43217;52.694;6.214;2022-09-09T04:12:13;8.93;;;8.02;;
57389;SDS011;43217;52.694;6.214;2022-09-09T04:14:39;9.63;;;8.60;;
57389;SDS011;43217;52.694;6.214;2022-09-09T04:17:04;10.95;;;8.88;;
57389;SDS011;43217;52.694;6.214;2022-09-09T04:19:31;9.18;;;8.23;;
57389;SDS011;43217;52.694;6.214;2022-09-09T04:21:57;11.88;;;8.63;;
57389;SDS011;43217;52.694;6.214;2022-09-09T04:24:23;8.75;;;7.85;;
57389;SDS011;43217;52.694;6.214;2022-09-09T04:26:49;10.77;;;9.40;;
57389;SDS011;43217;52.694;6.214;2022-09-09T04:29:15;10.88;;;9.77;;
57389;SDS011;43217;52.694;6.214;2022-09-09T04:31:40;13.85;;;11.10;;
57389;SDS011;43217;52.694;6.214;2022-09-09T04:34:07;13.68;;;11.77;;
57389;SDS011;43217;52.694;6.214;2022-09-09T04:36:34;13.90;;;12.40;;
57389;SDS011;43217;52.694;6.214;2022-09-09T04:38:59;14.38;;;12.57;;
57389;SDS011;43217;52.694;6.214;2022-09-09T04:41:26;13.93;;;12.20;;
57389;SDS011;43217;52.694;6.214;2022-09-09T04:43:52;16.30;;;13.90;;
57389;SDS011;43217;52.694;6.214;2022-09-09T04:46:18;16.42;;;13.57;;
57389;SDS011;43217;52.694;6.214;2022-09-09T04:48:45;16.30;;;14.23;;
57389;SDS011;43217;52.694;6.214;2022-09-09T04:51:12;16.10;;;14.13;;
57389;SDS011;43217;52.694;6.214;2022-09-09T04:53:38;14.63;;;13.15;;
57389;SDS011;43217;52.694;6.214;2022-09-09T04:56:06;17.02;;;14.10;;
57389;SDS011;43217;52.694;6.214;2022-09-09T04:58:42;16.70;;;14.90;;
57389;SDS011;43217;52.694;6.214;2022-09-09T05:03:43;17.25;;;14.63;;
57389;SDS011;43217;52.694;6.214;2022-09-09T05:06:18;20.92;;;15.15;;
57389;SDS011;43217;52.694;6.214;2022-09-09T05:08:45;17.70;;;15.65;;
57389;SDS011;43217;52.694;6.214;2022-09-09T05:11:21;15.57;;;13.52;;
57389;SDS011;43217;52.694;6.214;2022-09-09T05:13:49;15.63;;;13.25;;
57389;SDS011;43217;52.694;6.214;2022-09-09T05:16:15;16.20;;;13.90;;
57389;SDS011;43217;52.694;6.214;2022-09-09T05:21:29;15.65;;;13.82;;
57389;SDS011;43217;52.694;6.214;2022-09-09T05:23:56;15.00;;;13.50;;
57389;SDS011;43217;52.694;6.214;2022-09-09T05:26:22;16.15;;;13.98;;
57389;SDS011;43217;52.694;6.214;2022-09-09T05:28:49;15.10;;;13.52;;
57389;SDS011;43217;52.694;6.214;2022-09-09T05:31:15;14.50;;;12.98;;
57389;SDS011;43217;52.694;6.214;2022-09-09T05:33:42;13.90;;;12.60;;
57389;SDS011;43217;52.694;6.214;2022-09-09T05:36:11;13.48;;;12.07;;
57389;SDS011;43217;52.694;6.214;2022-09-09T05:38:39;12.90;;;11.63;;
57389;SDS011;43217;52.694;6.214;2022-09-09T05:41:05;16.97;;;13.10;;
57389;SDS011;43217;52.694;6.214;2022-09-09T05:43:32;13.07;;;11.80;;
57389;SDS011;43217;52.694;6.214;2022-09-09T05:45:59;13.23;;;11.80;;
57389;SDS011;43217;52.694;6.214;2022-09-09T05:48:39;13.10;;;11.27;;
57389;SDS011;43217;52.694;6.214;2022-09-09T05:51:07;13.60;;;12.02;;
57389;SDS011;43217;52.694;6.214;2022-09-09T05:53:35;12.68;;;11.38;;
57389;SDS011;43217;52.694;6.214;2022-09-09T05:56:05;12.65;;;11.40;;
57389;SDS011;43217;52.694;6.214;2022-09-09T05:58:35;13.02;;;11.68;;
57389;SDS011;43217;52.694;6.214;2022-09-09T06:01:03;11.63;;;10.38;;
57389;SDS011;43217;52.694;6.214;2022-09-09T06:03:48;12.18;;;10.95;;
57389;SDS011;43217;52.694;6.214;2022-09-09T06:06:17;12.20;;;11.02;;
57389;SDS011;43217;52.694;6.214;2022-09-09T06:08:52;11.30;;;10.10;;
57389;SDS011;43217;52.694;6.214;2022-09-09T06:11:26;11.38;;;10.23;;
57389;SDS011;43217;52.694;6.214;2022-09-09T06:13:56;12.15;;;11.00;;
57389;SDS011;43217;52.694;6.214;2022-09-09T06:16:22;12.50;;;11.18;;
57389;SDS011;43217;52.694;6.214;2022-09-09T06:18:49;11.50;;;10.18;;
57389;SDS011;43217;52.694;6.214;2022-09-09T06:21:20;10.38;;;9.25;;
57389;SDS011;43217;52.694;6.214;2022-09-09T06:23:47;12.13;;;10.43;;
57389;SDS011;43217;52.694;6.214;2022-09-09T06:26:15;12.68;;;10.43;;
57389;SDS011;43217;52.694;6.214;2022-09-09T06:28:43;11.25;;;10.15;;
57389;SDS011;43217;52.694;6.214;2022-09-09T06:31:13;9.68;;;8.88;;
57389;SDS011;43217;52.694;6.214;2022-09-09T06:33:50;10.75;;;9.75;;
57389;SDS011;43217;52.694;6.214;2022-09-09T06:36:18;10.02;;;8.82;;
57389;SDS011;43217;52.694;6.214;2022-09-09T06:38:45;8.00;;;7.30;;
57389;SDS011;43217;52.694;6.214;2022-09-09T06:41:12;8.75;;;7.90;;
57389;SDS011;43217;52.694;6.214;2022-09-09T06:46:06;7.88;;;7.22;;
57389;SDS011;43217;52.694;6.214;2022-09-09T06:48:35;8.15;;;7.35;;
57389;SDS011;43217;52.694;6.214;2022-09-09T06:53:34;8.50;;;7.43;;
57389;SDS011;43217;52.694;6.214;2022-09-09T06:56:23;8.80;;;7.90;;
57389;SDS011;43217;52.694;6.214;2022-09-09T06:58:48;8.00;;;7.13;;
57389;SDS011;43217;52.694;6.214;2022-09-09T07:01:16;7.47;;;6.65;;
57389;SDS011;43217;52.694;6.214;2022-09-09T07:03:48;6.88;;;5.95;;
57389;SDS011;43217;52.694;6.214;2022-09-09T07:06:19;6.75;;;5.97;;
57389;SDS011;43217;52.694;6.214;2022-09-09T07:08:50;6.68;;;5.45;;
57389;SDS011;43217;52.694;6.214;2022-09-09T07:11:17;6.32;;;5.72;;
57389;SDS011;43217;52.694;6.214;2022-09-09T07:13:44;6.70;;;5.30;;
57389;SDS011;43217;52.694;6.214;2022-09-09T07:16:11;7.22;;;5.93;;
57389;SDS011;43217;52.694;6.214;2022-09-09T07:18:39;7.70;;;6.05;;
57389;SDS011;43217;52.694;6.214;2022-09-09T07:21:06;6.13;;;5.25;;
57389;SDS011;43217;52.694;6.214;2022-09-09T07:23:32;6.63;;;5.90;;
57389;SDS011;43217;52.694;6.214;2022-09-09T07:25:58;7.32;;;5.40;;
57389;SDS011;43217;52.694;6.214;2022-09-09T07:28:24;8.40;;;5.18;;
57389;SDS011;43217;52.694;6.214;2022-09-09T07:30:57;6.20;;;4.75;;
57389;SDS011;43217;52.694;6.214;2022-09-09T07:33:24;7.43;;;5.18;;
57389;SDS011;43217;52.694;6.214;2022-09-09T07:35:51;5.75;;;5.00;;
57389;SDS011;43217;52.694;6.214;2022-09-09T07:38:17;6.75;;;5.43;;
57389;SDS011;43217;52.694;6.214;2022-09-09T07:40:43;6.20;;;4.87;;
57389;SDS011;43217;52.694;6.214;2022-09-09T07:43:09;6.90;;;5.00;;
57389;SDS011;43217;52.694;6.214;2022-09-09T07:45:36;8.65;;;5.47;;
57389;SDS011;43217;52.694;6.214;2022-09-09T07:48:02;8.05;;;5.75;;
57389;SDS011;43217;52.694;6.214;2022-09-09T07:50:34;5.93;;;5.32;;
57389;SDS011;43217;52.694;6.214;2022-09-09T07:53:00;7.13;;;5.68;;
57389;SDS011;43217;52.694;6.214;2022-09-09T07:55:27;7.00;;;5.60;;
57389;SDS011;43217;52.694;6.214;2022-09-09T07:57:53;6.72;;;5.32;;
57389;SDS011;43217;52.694;6.214;2022-09-09T08:00:20;6.72;;;4.80;;
57389;SDS011;43217;52.694;6.214;2022-09-09T08:02:47;6.07;;;4.57;;
57389;SDS011;43217;52.694;6.214;2022-09-09T08:05:13;6.15;;;4.97;;
57389;SDS011;43217;52.694;6.214;2022-09-09T08:07:40;7.10;;;4.17;;
57389;SDS011;43217;52.694;6.214;2022-09-09T08:10:05;7.45;;;4.97;;
57389;SDS011;43217;52.694;6.214;2022-09-09T08:12:32;6.22;;;4.28;;
57389;SDS011;43217;52.694;6.214;2022-09-09T08:14:58;10.82;;;4.93;;
57389;SDS011;43217;52.694;6.214;2022-09-09T08:17:24;7.68;;;4.63;;
57389;SDS011;43217;52.694;6.214;2022-09-09T08:19:50;8.70;;;4.30;;
57389;SDS011;43217;52.694;6.214;2022-09-09T08:22:15;7.90;;;4.32;;
57389;SDS011;43217;52.694;6.214;2022-09-09T08:24:41;8.85;;;4.70;;
57389;SDS011;43217;52.694;6.214;2022-09-09T08:27:10;8.05;;;4.00;;
57389;SDS011;43217;52.694;6.214;2022-09-09T08:29:35;7.72;;;4.32;;
57389;SDS011;43217;52.694;6.214;2022-09-09T08:32:03;4.65;;;3.95;;
57389;SDS011;43217;52.694;6.214;2022-09-09T08:34:29;5.97;;;3.90;;
57389;SDS011;43217;52.694;6.214;2022-09-09T08:36:56;7.90;;;3.95;;
57389;SDS011;43217;52.694;6.214;2022-09-09T08:39:22;9.95;;;3.65;;
57389;SDS011;43217;52.694;6.214;2022-09-09T08:42:00;6.10;;;4.03;;
57389;SDS011;43217;52.694;6.214;2022-09-09T08:44:48;9.75;;;4.32;;
57389;SDS011;43217;52.694;6.214;2022-09-09T08:50:44;6.43;;;3.67;;
57389;SDS011;43217;52.694;6.214;2022-09-09T08:53:18;5.93;;;3.40;;
57389;SDS011;43217;52.694;6.214;2022-09-09T08:55:54;5.78;;;3.38;;
57389;SDS011;43217;52.694;6.214;2022-09-09T08:58:28;6.67;;;3.50;;
57389;SDS011;43217;52.694;6.214;2022-09-09T09:06:26;6.78;;;3.88;;
57389;SDS011;43217;52.694;6.214;2022-09-09T09:11:54;6.88;;;3.92;;
57389;SDS011;43217;52.694;6.214;2022-09-09T09:14:26;5.35;;;3.17;;
57389;SDS011;43217;52.694;6.214;2022-09-09T09:19:32;6.47;;;2.97;;
57389;SDS011;43217;52.694;6.214;2022-09-09T09:22:00;7.75;;;2.90;;
57389;SDS011;43217;52.694;6.214;2022-09-09T09:25:02;7.88;;;3.30;;
57389;SDS011;43217;52.694;6.214;2022-09-09T09:27:40;5.13;;;2.63;;
57389;SDS011;43217;52.694;6.214;2022-09-09T09:30:22;9.93;;;3.20;;
57389;SDS011;43217;52.694;6.214;2022-09-09T09:32:53;7.40;;;2.80;;
57389;SDS011;43217;52.694;6.214;2022-09-09T09:37:50;6.47;;;2.75;;
57389;SDS011;43217;52.694;6.214;2022-09-09T09:40:18;6.80;;;2.77;;
57389;SDS011;43217;52.694;6.214;2022-09-09T09:42:56;6.57;;;2.65;;
57389;SDS011;43217;52.694;6.214;2022-09-09T09:45:32;6.22;;;2.55;;
57389;SDS011;43217;52.694;6.214;2022-09-09T09:48:03;12.02;;;3.60;;
57389;SDS011;43217;52.694;6.214;2022-09-09T09:50:31;6.72;;;2.60;;
57389;SDS011;43217;52.694;6.214;2022-09-09T09:52:59;3.63;;;2.45;;
57389;SDS011;43217;52.694;6.214;2022-09-09T09:55:27;5.15;;;2.20;;
57389;SDS011;43217;52.694;6.214;2022-09-09T09:58:00;7.70;;;2.90;;
57389;SDS011;43217;52.694;6.214;2022-09-09T10:03:21;7.97;;;2.38;;
57389;SDS011;43217;52.694;6.214;2022-09-09T10:05:57;3.45;;;2.33;;
57389;SDS011;43217;52.694;6.214;2022-09-09T10:08:23;4.55;;;2.67;;
57389;SDS011;43217;52.694;6.214;2022-09-09T10:19:33;5.32;;;2.58;;
57389;SDS011;43217;52.694;6.214;2022-09-09T10:32:46;9.55;;;2.90;;
57389;SDS011;43217;52.694;6.214;2022-09-09T10:35:33;6.75;;;2.60;;
57389;SDS011;43217;52.694;6.214;2022-09-09T10:38:26;6.05;;;2.30;;
57389;SDS011;43217;52.694;6.214;2022-09-09T10:43:45;5.68;;;2.45;;
57389;SDS011;43217;52.694;6.214;2022-09-09T10:49:13;7.65;;;2.30;;
57389;SDS011;43217;52.694;6.214;2022-09-09T10:54:58;5.28;;;2.63;;
57389;SDS011;43217;52.694;6.214;2022-09-09T11:00:23;4.95;;;2.30;;
57389;SDS011;43217;52.694;6.214;2022-09-09T11:02:59;5.70;;;2.40;;
57389;SDS011;43217;52.694;6.214;2022-09-09T11:05:43;5.90;;;2.10;;
57389;SDS011;43217;52.694;6.214;2022-09-09T11:08:18;6.45;;;2.30;;
57389;SDS011;43217;52.694;6.214;2022-09-09T11:13:42;6.88;;;2.40;;
57389;SDS011;43217;52.694;6.214;2022-09-09T11:21:47;4.95;;;2.42;;
57389;SDS011;43217;52.694;6.214;2022-09-09T11:24:26;5.40;;;2.10;;
57389;SDS011;43217;52.694;6.214;2022-09-09T11:27:06;5.15;;;2.17;;
57389;SDS011;43217;52.694;6.214;2022-09-09T11:35:50;5.10;;;2.28;;
57389;SDS011;43217;52.694;6.214;2022-09-09T11:38:30;7.95;;;1.88;;
57389;SDS011;43217;52.694;6.214;2022-09-09T11:41:09;6.25;;;2.03;;
57389;SDS011;43217;52.694;6.214;2022-09-09T11:43:47;3.97;;;1.90;;
57389;SDS011;43217;52.694;6.214;2022-09-09T11:46:18;6.68;;;1.98;;
57389;SDS011;43217;52.694;6.214;2022-09-09T11:49:05;4.38;;;1.90;;
57389;SDS011;43217;52.694;6.214;2022-09-09T11:51:50;6.30;;;2.38;;
57389;SDS011;43217;52.694;6.214;2022-09-09T11:54:27;4.65;;;2.10;;
57389;SDS011;43217;52.694;6.214;2022-09-09T11:56:58;6.90;;;2.20;;
57389;SDS011;43217;52.694;6.214;2022-09-09T12:02:03;4.75;;;1.92;;
57389;SDS011;43217;52.694;6.214;2022-09-09T12:12:26;5.80;;;2.50;;
57389;SDS011;43217;52.694;6.214;2022-09-09T12:17:53;5.30;;;1.80;;
57389;SDS011;43217;52.694;6.214;2022-09-09T12:33:43;4.18;;;1.60;;
57389;SDS011;43217;52.694;6.214;2022-09-09T12:36:16;4.72;;;1.80;;
57389;SDS011;43217;52.694;6.214;2022-09-09T12:38:52;3.53;;;1.60;;
57389;SDS011;43217;52.694;6.214;2022-09-09T12:41:21;5.03;;;1.90;;
57389;SDS011;43217;52.694;6.214;2022-09-09T12:43:51;5.00;;;1.58;;
57389;SDS011;43217;52.694;6.214;2022-09-09T12:49:01;4.90;;;2.65;;
57389;SDS011;43217;52.694;6.214;2022-09-09T12:51:29;6.82;;;1.90;;
57389;SDS011;43217;52.694;6.214;2022-09-09T12:53:56;5.30;;;1.75;;
57389;SDS011;43217;52.694;6.214;2022-09-09T12:56:24;6.28;;;2.22;;
57389;SDS011;43217;52.694;6.214;2022-09-09T12:58:56;4.22;;;2.00;;
57389;SDS011;43217;52.694;6.214;2022-09-09T13:01:24;6.25;;;2.40;;
57389;SDS011;43217;52.694;6.214;2022-09-09T13:03:58;5.43;;;2.20;;
57389;SDS011;43217;52.694;6.214;2022-09-09T13:06:25;4.75;;;2.15;;
57389;SDS011;43217;52.694;6.214;2022-09-09T13:08:52;6.00;;;2.70;;
57389;SDS011;43217;52.694;6.214;2022-09-09T13:11:23;5.05;;;2.63;;
57389;SDS011;43217;52.694;6.214;2022-09-09T13:14:04;6.13;;;2.30;;
57389;SDS011;43217;52.694;6.214;2022-09-09T13:16:32;5.10;;;2.65;;
57389;SDS011;43217;52.694;6.214;2022-09-09T13:19:00;5.68;;;2.22;;
57389;SDS011;43217;52.694;6.214;2022-09-09T13:21:40;4.68;;;2.80;;
57389;SDS011;43217;52.694;6.214;2022-09-09T13:24:22;4.45;;;2.70;;
57389;SDS011;43217;52.694;6.214;2022-09-09T13:26:57;3.53;;;2.60;;
57389;SDS011;43217;52.694;6.214;2022-09-09T13:29:28;4.15;;;2.63;;
57389;SDS011;43217;52.694;6.214;2022-09-09T13:31:54;5.83;;;3.00;;
57389;SDS011;43217;52.694;6.214;2022-09-09T13:34:37;4.32;;;2.58;;
57389;SDS011;43217;52.694;6.214;2022-09-09T13:37:04;5.15;;;2.20;;
57389;SDS011;43217;52.694;6.214;2022-09-09T13:39:32;4.82;;;2.25;;
57389;SDS011;43217;52.694;6.214;2022-09-09T13:42:01;2.50;;;1.50;;
57389;SDS011;43217;52.694;6.214;2022-09-09T13:44:38;4.07;;;1.80;;
57389;SDS011;43217;52.694;6.214;2022-09-09T13:47:17;2.95;;;1.80;;
57389;SDS011;43217;52.694;6.214;2022-09-09T13:49:44;3.17;;;1.90;;
57389;SDS011;43217;52.694;6.214;2022-09-09T13:52:12;2.15;;;1.38;;
57389;SDS011;43217;52.694;6.214;2022-09-09T13:54:39;2.00;;;1.30;;
57389;SDS011;43217;52.694;6.214;2022-09-09T13:57:11;3.72;;;1.50;;
57389;SDS011;43217;52.694;6.214;2022-09-09T13:59:45;3.13;;;1.48;;
57389;SDS011;43217;52.694;6.214;2022-09-09T14:02:12;3.75;;;1.65;;
57389;SDS011;43217;52.694;6.214;2022-09-09T14:04:38;3.47;;;1.48;;
57389;SDS011;43217;52.694;6.214;2022-09-09T14:07:07;2.30;;;1.33;;
57389;SDS011;43217;52.694;6.214;2022-09-09T14:09:38;3.70;;;1.42;;
57389;SDS011;43217;52.694;6.214;2022-09-09T14:12:04;2.80;;;1.80;;
57389;SDS011;43217;52.694;6.214;2022-09-09T14:14:30;2.58;;;1.20;;
57389;SDS011;43217;52.694;6.214;2022-09-09T14:16:56;2.15;;;1.30;;
57389;SDS011;43217;52.694;6.214;2022-09-09T14:19:21;2.45;;;1.13;;
57389;SDS011;43217;52.694;6.214;2022-09-09T14:21:47;3.22;;;1.30;;
57389;SDS011;43217;52.694;6.214;2022-09-09T14:24:13;2.60;;;1.33;;
57389;SDS011;43217;52.694;6.214;2022-09-09T14:26:39;3.17;;;1.30;;
57389;SDS011;43217;52.694;6.214;2022-09-09T14:29:05;2.42;;;1.50;;
57389;SDS011;43217;52.694;6.214;2022-09-09T14:31:31;2.85;;;1.35;;
57389;SDS011;43217;52.694;6.214;2022-09-09T14:33:57;3.60;;;1.50;;
57389;SDS011;43217;52.694;6.214;2022-09-09T14:36:23;4.18;;;2.63;;
57389;SDS011;43217;52.694;6.214;2022-09-09T14:38:49;3.17;;;1.55;;
57389;SDS011;43217;52.694;6.214;2022-09-09T14:41:17;2.25;;;1.70;;
57389;SDS011;43217;52.694;6.214;2022-09-09T14:43:44;2.95;;;1.70;;
57389;SDS011;43217;52.694;6.214;2022-09-09T14:46:12;2.92;;;1.60;;
57389;SDS011;43217;52.694;6.214;2022-09-09T14:48:39;3.53;;;1.50;;
57389;SDS011;43217;52.694;6.214;2022-09-09T14:51:09;4.93;;;1.83;;
57389;SDS011;43217;52.694;6.214;2022-09-09T14:53:44;4.75;;;1.88;;
57389;SDS011;43217;52.694;6.214;2022-09-09T14:56:14;2.97;;;1.33;;
57389;SDS011;43217;52.694;6.214;2022-09-09T14:58:42;4.10;;;1.70;;
57389;SDS011;43217;52.694;6.214;2022-09-09T15:01:12;3.03;;;1.50;;
57389;SDS011;43217;52.694;6.214;2022-09-09T15:03:40;4.32;;;2.30;;
57389;SDS011;43217;52.694;6.214;2022-09-09T15:06:13;4.57;;;2.50;;
57389;SDS011;43217;52.694;6.214;2022-09-09T15:08:40;3.53;;;2.03;;
57389;SDS011;43217;52.694;6.214;2022-09-09T15:11:07;2.38;;;1.85;;
57389;SDS011;43217;52.694;6.214;2022-09-09T15:13:34;5.43;;;2.65;;
57389;SDS011;43217;52.694;6.214;2022-09-09T15:16:12;3.83;;;2.20;;
57389;SDS011;43217;52.694;6.214;2022-09-09T15:18:40;3.88;;;1.58;;
57389;SDS011;43217;52.694;6.214;2022-09-09T15:21:17;2.55;;;1.75;;
57389;SDS011;43217;52.694;6.214;2022-09-09T15:23:46;3.22;;;1.60;;
57389;SDS011;43217;52.694;6.214;2022-09-09T15:26:12;3.22;;;1.83;;
57389;SDS011;43217;52.694;6.214;2022-09-09T15:28:39;2.47;;;1.33;;
57389;SDS011;43217;52.694;6.214;2022-09-09T15:31:06;3.78;;;2.03;;
57389;SDS011;43217;52.694;6.214;2022-09-09T15:33:34;3.72;;;2.05;;
57389;SDS011;43217;52.694;6.214;2022-09-09T15:36:12;2.97;;;1.67;;
57389;SDS011;43217;52.694;6.214;2022-09-09T15:38:38;4.40;;;2.07;;
57389;SDS011;43217;52.694;6.214;2022-09-09T15:41:04;2.72;;;2.00;;
57389;SDS011;43217;52.694;6.214;2022-09-09T15:43:30;3.25;;;2.42;;
57389;SDS011;43217;52.694;6.214;2022-09-09T15:46:02;4.18;;;2.38;;
57389;SDS011;43217;52.694;6.214;2022-09-09T15:48:49;5.32;;;2.80;;
57389;SDS011;43217;52.694;6.214;2022-09-09T15:51:16;2.60;;;2.37;;
57389;SDS011;43217;52.694;6.214;2022-09-09T15:53:41;4.18;;;2.78;;
57389;SDS011;43217;52.694;6.214;2022-09-09T15:56:08;4.00;;;2.60;;
57389;SDS011;43217;52.694;6.214;2022-09-09T15:58:34;4.10;;;2.95;;
57389;SDS011;43217;52.694;6.214;2022-09-09T16:01:04;5.50;;;3.17;;
57389;SDS011;43217;52.694;6.214;2022-09-09T16:03:35;3.58;;;2.60;;
57389;SDS011;43217;52.694;6.214;2022-09-09T16:06:02;3.58;;;2.30;;
57389;SDS011;43217;52.694;6.214;2022-09-09T16:08:33;4.13;;;3.13;;
57389;SDS011;43217;52.694;6.214;2022-09-09T16:11:12;4.65;;;3.25;;
57389;SDS011;43217;52.694;6.214;2022-09-09T16:13:40;6.18;;;3.30;;
57389;SDS011;43217;52.694;6.214;2022-09-09T16:16:07;2.95;;;2.20;;
57389;SDS011;43217;52.694;6.214;2022-09-09T16:18:40;4.22;;;2.80;;
57389;SDS011;43217;52.694;6.214;2022-09-09T16:21:21;3.70;;;2.20;;
57389;SDS011;43217;52.694;6.214;2022-09-09T16:23:52;3.60;;;2.03;;
57389;SDS011;43217;52.694;6.214;2022-09-09T16:26:21;3.15;;;2.08;;
57389;SDS011;43217;52.694;6.214;2022-09-09T16:28:49;3.57;;;2.43;;
57389;SDS011;43217;52.694;6.214;2022-09-09T16:31:16;3.72;;;2.13;;
57389;SDS011;43217;52.694;6.214;2022-09-09T16:33:44;3.33;;;2.33;;
57389;SDS011;43217;52.694;6.214;2022-09-09T16:36:27;4.18;;;2.20;;
57389;SDS011;43217;52.694;6.214;2022-09-09T16:38:55;4.95;;;2.20;;
57389;SDS011;43217;52.694;6.214;2022-09-09T16:41:26;4.75;;;2.35;;
57389;SDS011;43217;52.694;6.214;2022-09-09T16:46:20;4.18;;;2.13;;
57389;SDS011;43217;52.694;6.214;2022-09-09T16:48:47;4.30;;;2.25;;
57389;SDS011;43217;52.694;6.214;2022-09-09T16:51:15;3.65;;;2.22;;
57389;SDS011;43217;52.694;6.214;2022-09-09T16:53:45;4.30;;;2.58;;
57389;SDS011;43217;52.694;6.214;2022-09-09T16:56:12;3.40;;;2.28;;
57389;SDS011;43217;52.694;6.214;2022-09-09T16:58:40;5.47;;;2.33;;
57389;SDS011;43217;52.694;6.214;2022-09-09T17:01:07;4.32;;;2.40;;
57389;SDS011;43217;52.694;6.214;2022-09-09T17:03:35;4.22;;;2.30;;
57389;SDS011;43217;52.694;6.214;2022-09-09T17:06:01;3.67;;;2.35;;
57389;SDS011;43217;52.694;6.214;2022-09-09T17:08:28;2.55;;;2.20;;
57389;SDS011;43217;52.694;6.214;2022-09-09T17:10:54;5.10;;;2.33;;
57389;SDS011;43217;52.694;6.214;2022-09-09T17:13:20;3.63;;;2.38;;
57389;SDS011;43217;52.694;6.214;2022-09-09T17:15:47;3.63;;;2.20;;
57389;SDS011;43217;52.694;6.214;2022-09-09T17:18:13;4.43;;;2.63;;
57389;SDS011;43217;52.694;6.214;2022-09-09T17:20:39;3.50;;;2.40;;
57389;SDS011;43217;52.694;6.214;2022-09-09T17:25:32;4.75;;;2.50;;
57389;SDS011;43217;52.694;6.214;2022-09-09T17:27:58;3.55;;;2.50;;
57389;SDS011;43217;52.694;6.214;2022-09-09T17:30:25;2.72;;;2.40;;
57389;SDS011;43217;52.694;6.214;2022-09-09T17:32:52;6.57;;;3.30;;
57389;SDS011;43217;52.694;6.214;2022-09-09T17:35:17;4.22;;;2.70;;
57389;SDS011;43217;52.694;6.214;2022-09-09T17:37:44;6.15;;;3.00;;
57389;SDS011;43217;52.694;6.214;2022-09-09T17:40:10;4.57;;;3.53;;